createdAt,value
2022-11-03T00:00:00.239Z,8.7
2022-11-03T00:01:00.234Z,8.7
2022-11-03T00:02:00.421Z,8.3
2022-11-03T00:03:00.392Z,8.3
2022-11-03T00:04:00.233Z,8.3
2022-11-03T00:05:00.247Z,8.3
2022-11-03T00:06:00.322Z,8.3
2022-11-03T00:07:00.311Z,9.0
2022-11-03T00:08:02.283Z,9.0
2022-11-03T00:09:02.967Z,9.0
2022-11-03T00:10:00.221Z,9.0
2022-11-03T00:11:09.323Z,9.0
2022-11-03T00:12:00.685Z,7.9
2022-11-03T00:13:00.223Z,7.9
2022-11-03T00:14:00.686Z,7.9
2022-11-03T00:15:00.233Z,7.9
2022-11-03T00:16:00.510Z,7.9
2022-11-03T00:17:00.239Z,7.8
2022-11-03T00:18:00.243Z,7.8
2022-11-03T00:19:00.390Z,7.8
2022-11-03T00:20:00.243Z,7.8
2022-11-03T00:21:03.003Z,7.8
2022-11-03T00:22:00.222Z,8.3
2022-11-03T00:23:00.211Z,8.3
2022-11-03T00:24:00.316Z,8.3
2022-11-03T00:25:00.273Z,8.3
2022-11-03T00:26:12.242Z,8.3
2022-11-03T00:27:00.221Z,7.9
2022-11-03T00:28:00.309Z,7.9
2022-11-03T00:29:05.433Z,7.9
2022-11-03T00:30:00.219Z,7.9
2022-11-03T00:31:04.400Z,7.9
2022-11-03T00:32:00.233Z,7.8
2022-11-03T00:33:00.233Z,7.8
2022-11-03T00:34:01.193Z,7.8
2022-11-03T00:35:00.274Z,7.8
2022-11-03T00:36:00.584Z,7.8
2022-11-03T00:37:00.242Z,8.1
2022-11-03T00:38:00.281Z,8.1
2022-11-03T00:39:01.111Z,8.1
2022-11-03T00:40:00.227Z,8.1
2022-11-03T00:41:01.683Z,8.1
2022-11-03T00:42:00.219Z,8.1
2022-11-03T00:43:00.258Z,8.1
2022-11-03T00:44:00.227Z,8.1
2022-11-03T00:45:00.264Z,8.1
2022-11-03T00:46:00.543Z,8.1
2022-11-03T00:47:00.217Z,7.9
2022-11-03T00:48:00.267Z,7.9
2022-11-03T00:49:00.693Z,7.9
2022-11-03T00:50:00.231Z,7.9
2022-11-03T00:51:03.488Z,7.9
2022-11-03T00:52:00.229Z,8.6
2022-11-03T00:53:00.214Z,8.6
2022-11-03T00:54:01.839Z,8.6
2022-11-03T00:55:00.220Z,8.6
2022-11-03T00:56:00.951Z,8.6
2022-11-03T00:57:00.275Z,7.9
2022-11-03T00:58:00.225Z,7.9
2022-11-03T00:59:02.383Z,7.9
2022-11-03T01:00:00.223Z,7.9
2022-11-03T01:01:03.491Z,7.9
2022-11-03T01:02:00.357Z,8.5
2022-11-03T01:03:00.219Z,8.5
2022-11-03T01:04:00.553Z,8.5
2022-11-03T01:05:00.246Z,8.5
2022-11-03T01:06:01.239Z,8.5
2022-11-03T01:07:00.942Z,9.1
2022-11-03T01:09:00.219Z,9.1
2022-11-03T01:10:00.296Z,9.1
2022-11-03T01:11:04.166Z,9.1
2022-11-03T01:12:02.659Z,8.8
2022-11-03T01:13:00.223Z,8.8
2022-11-03T01:14:00.432Z,8.8
2022-11-03T01:15:00.338Z,8.8
2022-11-03T01:16:00.257Z,8.8
2022-11-03T01:17:01.050Z,9.3
2022-11-03T01:18:00.238Z,9.3
2022-11-03T01:19:00.225Z,9.3
2022-11-03T01:20:00.227Z,9.3
2022-11-03T01:21:00.240Z,9.3
2022-11-03T01:22:00.237Z,10.1
2022-11-03T01:23:00.225Z,10.1
2022-11-03T01:24:01.801Z,10.1
2022-11-03T01:25:00.262Z,10.1
2022-11-03T01:26:04.945Z,10.1
2022-11-03T01:27:00.753Z,10.2
2022-11-03T01:28:01.732Z,10.2
2022-11-03T01:29:00.377Z,10.2
2022-11-03T01:30:00.241Z,10.2
2022-11-03T01:31:02.529Z,10.2
2022-11-03T01:32:00.279Z,10.1
2022-11-03T01:33:00.218Z,10.1
2022-11-03T01:34:00.481Z,10.1
2022-11-03T01:35:00.234Z,10.1
2022-11-03T01:36:00.303Z,10.1
2022-11-03T01:37:00.694Z,10.1
2022-11-03T01:38:00.232Z,10.1
2022-11-03T01:39:00.237Z,10.1
2022-11-03T01:40:00.326Z,10.1
2022-11-03T01:41:01.417Z,10.1
2022-11-03T01:42:00.416Z,10.8
2022-11-03T01:43:13.917Z,10.8
2022-11-03T01:44:07.646Z,10.8
2022-11-03T01:45:00.402Z,10.8
2022-11-03T01:46:07.312Z,10.8
2022-11-03T01:47:13.944Z,11.2
2022-11-03T01:48:00.333Z,11.2
2022-11-03T01:49:07.132Z,11.2
2022-11-03T01:50:07.418Z,11.2
2022-11-03T01:51:03.257Z,11.2
2022-11-03T01:52:09.948Z,10.7
2022-11-03T01:53:00.463Z,10.7
2022-11-03T01:54:04.900Z,10.7
2022-11-03T01:55:05.136Z,10.7
2022-11-03T01:56:01.788Z,10.7
2022-11-03T01:57:04.975Z,10.7
2022-11-03T01:58:01.534Z,10.7
2022-11-03T01:59:01.253Z,10.7
2022-11-03T02:00:01.389Z,10.7
2022-11-03T02:01:00.996Z,10.7
2022-11-03T02:02:00.511Z,11.0
2022-11-03T02:03:00.986Z,11.0
2022-11-03T02:04:09.400Z,11.0
2022-11-03T02:05:02.994Z,11.0
2022-11-03T02:06:01.725Z,11.0
2022-11-03T02:07:11.182Z,10.6
2022-11-03T02:09:04.187Z,10.6
2022-11-03T02:10:00.630Z,10.6
2022-11-03T02:11:00.585Z,10.6
2022-11-03T02:12:01.176Z,10.3
2022-11-03T02:13:06.510Z,10.3
2022-11-03T02:14:00.742Z,10.3
2022-11-03T02:15:06.658Z,10.3
2022-11-03T02:16:00.398Z,10.3
2022-11-03T02:17:03.995Z,10.9
2022-11-03T02:18:00.940Z,10.9
2022-11-03T02:19:01.335Z,10.9
2022-11-03T02:20:05.927Z,10.9
2022-11-03T02:21:13.469Z,10.9
2022-11-03T02:22:13.531Z,10.4
2022-11-03T02:23:07.978Z,10.4
2022-11-03T02:24:07.939Z,10.4
2022-11-03T02:25:20.273Z,10.4
2022-11-03T02:26:00.923Z,10.4
2022-11-03T02:27:00.319Z,10.5
2022-11-03T02:28:01.821Z,10.5
2022-11-03T02:29:00.376Z,10.5
2022-11-03T02:30:00.436Z,10.5
2022-11-03T02:31:10.220Z,10.5
2022-11-03T02:32:10.493Z,10.5
2022-11-03T02:33:20.156Z,10.5
2022-11-03T02:34:10.509Z,10.5
2022-11-03T02:35:04.727Z,10.5
2022-11-03T02:36:11.191Z,10.5
2022-11-03T02:37:07.226Z,10.2
2022-11-03T02:38:04.678Z,10.2
2022-11-03T02:39:09.155Z,10.2
2022-11-03T02:40:05.712Z,10.2
2022-11-03T02:41:04.290Z,10.2
2022-11-03T02:42:03.493Z,10.3
2022-11-03T02:43:01.820Z,10.3
2022-11-03T02:44:01.636Z,10.3
2022-11-03T02:45:04.287Z,10.3
2022-11-03T02:46:03.618Z,10.3
2022-11-03T02:47:04.408Z,10.0
2022-11-03T02:48:02.302Z,10.0
2022-11-03T02:49:00.275Z,10.0
2022-11-03T02:50:04.899Z,10.0
2022-11-03T02:51:02.238Z,10.0
2022-11-03T02:52:01.206Z,10.4
2022-11-03T02:53:00.789Z,10.4
2022-11-03T02:54:10.172Z,10.4
2022-11-03T02:55:11.875Z,10.4
2022-11-03T02:56:04.784Z,10.4
2022-11-03T02:57:06.771Z,11.0
2022-11-03T02:58:16.060Z,11.0
2022-11-03T02:59:03.871Z,11.0
2022-11-03T03:00:04.960Z,11.0
2022-11-03T03:01:07.740Z,11.0
2022-11-03T03:02:08.200Z,9.5
2022-11-03T03:03:06.799Z,9.5
2022-11-03T03:04:05.052Z,9.5
2022-11-03T03:05:04.988Z,9.5
2022-11-03T03:06:07.618Z,9.5
2022-11-03T03:07:04.494Z,9.5
2022-11-03T03:08:04.787Z,9.5
2022-11-03T03:09:05.097Z,9.5
2022-11-03T03:10:13.532Z,9.5
2022-11-03T03:11:02.282Z,9.5
2022-11-03T03:12:04.100Z,10.1
2022-11-03T03:13:02.001Z,10.1
2022-11-03T03:14:00.294Z,10.1
2022-11-03T03:15:02.710Z,10.1
2022-11-03T03:16:11.193Z,10.1
2022-11-03T03:17:08.769Z,9.9
2022-11-03T03:18:08.990Z,9.9
2022-11-03T03:19:08.682Z,9.9
2022-11-03T03:20:06.853Z,9.9
2022-11-03T03:21:04.693Z,9.9
2022-11-03T03:22:02.990Z,9.0
2022-11-03T03:23:12.825Z,9.0
2022-11-03T03:24:06.705Z,9.0
2022-11-03T03:25:10.169Z,9.0
2022-11-03T03:26:12.461Z,9.6
2022-11-03T03:27:03.287Z,9.6
2022-11-03T03:28:13.532Z,9.6
2022-11-03T03:29:06.442Z,9.6
2022-11-03T03:30:04.666Z,9.6
2022-11-03T03:31:04.482Z,9.6
2022-11-03T03:32:05.180Z,9.6
2022-11-03T03:33:03.034Z,9.6
2022-11-03T03:34:05.047Z,9.6
2022-11-03T03:35:01.533Z,9.6
2022-11-03T03:36:03.621Z,9.6
2022-11-03T03:37:00.931Z,10.1
2022-11-03T03:38:06.556Z,10.1
2022-11-03T03:39:05.036Z,10.1
2022-11-03T03:40:04.096Z,10.1
2022-11-03T03:41:00.621Z,10.1
2022-11-03T03:42:02.118Z,10.4
2022-11-03T03:43:03.138Z,10.4
2022-11-03T03:44:04.147Z,10.4
2022-11-03T03:45:00.894Z,10.4
2022-11-03T03:46:06.780Z,10.4
2022-11-03T03:47:07.327Z,10.4
2022-11-03T03:48:00.632Z,10.4
2022-11-03T03:49:00.302Z,10.4
2022-11-03T03:50:00.869Z,10.4
2022-11-03T03:51:01.477Z,10.4
2022-11-03T03:52:00.991Z,10.8
2022-11-03T03:53:02.908Z,10.8
2022-11-03T03:54:00.232Z,10.8
2022-11-03T03:55:00.633Z,10.8
2022-11-03T03:56:00.374Z,10.8
2022-11-03T03:57:02.736Z,10.4
2022-11-03T03:58:01.547Z,10.4
2022-11-03T03:59:00.258Z,10.4
2022-11-03T04:00:00.217Z,10.4
2022-11-03T04:01:00.281Z,10.4
2022-11-03T04:02:00.566Z,11.4
2022-11-03T04:03:00.360Z,11.4
2022-11-03T04:04:00.240Z,11.4
2022-11-03T04:05:00.242Z,11.4
2022-11-03T04:06:00.217Z,11.4
2022-11-03T04:07:00.295Z,11.5
2022-11-03T04:08:00.233Z,11.5
2022-11-03T04:09:00.250Z,11.5
2022-11-03T04:10:00.233Z,11.5
2022-11-03T04:11:00.236Z,11.5
2022-11-03T04:12:00.248Z,11.3
2022-11-03T04:13:00.262Z,11.3
2022-11-03T04:14:00.222Z,11.3
2022-11-03T04:15:00.257Z,11.3
2022-11-03T04:16:00.230Z,11.3
2022-11-03T04:17:00.255Z,11.1
2022-11-03T04:18:00.238Z,11.1
2022-11-03T04:19:00.273Z,11.1
2022-11-03T04:20:00.221Z,11.1
2022-11-03T04:21:00.348Z,11.1
2022-11-03T04:22:00.227Z,11.2
2022-11-03T04:23:00.215Z,11.2
2022-11-03T04:24:00.239Z,11.2
2022-11-03T04:25:00.240Z,11.2
2022-11-03T04:26:00.231Z,11.2
2022-11-03T04:27:13.396Z,11.4
2022-11-03T04:28:01.051Z,11.4
2022-11-03T04:29:00.575Z,11.4
2022-11-03T04:30:11.177Z,11.4
2022-11-03T04:31:00.355Z,11.4
2022-11-03T04:32:13.718Z,11.1
2022-11-03T04:33:00.309Z,11.1
2022-11-03T04:34:02.808Z,11.1
2022-11-03T04:35:00.312Z,11.1
2022-11-03T04:36:00.412Z,10.9
2022-11-03T04:37:00.415Z,10.9
2022-11-03T04:38:04.082Z,10.9
2022-11-03T04:39:00.311Z,10.9
2022-11-03T04:40:00.310Z,10.9
2022-11-03T04:41:00.214Z,11.5
2022-11-03T04:42:00.244Z,11.5
2022-11-03T04:43:03.419Z,11.5
2022-11-03T04:44:00.302Z,11.5
2022-11-03T04:45:01.265Z,11.5
2022-11-03T04:46:01.046Z,11.0
2022-11-03T04:47:00.454Z,11.0
2022-11-03T04:48:05.564Z,11.0
2022-11-03T04:49:00.879Z,11.0
2022-11-03T04:50:00.623Z,11.0
2022-11-03T04:51:09.676Z,10.7
2022-11-03T04:52:00.226Z,10.7
2022-11-03T04:53:00.266Z,10.7
2022-11-03T04:54:05.672Z,10.7
2022-11-03T04:55:00.258Z,10.7
2022-11-03T04:56:05.951Z,10.7
2022-11-03T04:57:08.083Z,10.7
2022-11-03T04:58:11.956Z,10.7
2022-11-03T04:59:00.235Z,10.7
2022-11-03T05:00:00.521Z,10.7
2022-11-03T05:01:02.594Z,10.5
2022-11-03T05:02:00.499Z,10.5
2022-11-03T05:03:00.336Z,10.5
2022-11-03T05:04:00.250Z,10.5
2022-11-03T05:05:04.025Z,10.5
2022-11-03T05:06:10.002Z,10.8
2022-11-03T05:07:00.257Z,10.8
2022-11-03T05:08:00.269Z,10.8
2022-11-03T05:09:09.529Z,10.8
2022-11-03T05:10:00.855Z,10.8
2022-11-03T05:11:00.315Z,10.4
2022-11-03T05:12:00.991Z,10.4
2022-11-03T05:13:00.733Z,10.4
2022-11-03T05:14:03.425Z,10.4
2022-11-03T05:15:07.296Z,10.4
2022-11-03T05:16:03.883Z,9.3
2022-11-03T05:17:01.460Z,9.3
2022-11-03T05:18:02.782Z,9.3
2022-11-03T05:19:00.262Z,9.3
2022-11-03T05:20:01.316Z,9.3
2022-11-03T05:21:03.729Z,9.5
2022-11-03T05:22:02.044Z,9.5
2022-11-03T05:23:00.240Z,9.5
2022-11-03T05:24:02.476Z,9.5
2022-11-03T05:25:09.612Z,9.5
2022-11-03T05:26:00.379Z,8.7
2022-11-03T05:27:00.467Z,8.7
2022-11-03T05:28:00.277Z,8.7
2022-11-03T05:29:08.147Z,8.7
2022-11-03T05:30:01.340Z,8.7
2022-11-03T05:31:01.387Z,8.6
2022-11-03T05:32:00.375Z,8.6
2022-11-03T05:33:00.219Z,8.6
2022-11-03T05:34:11.583Z,8.6
2022-11-03T05:35:00.488Z,8.6
2022-11-03T05:36:04.931Z,8.8
2022-11-03T05:37:20.695Z,8.8
2022-11-03T05:38:01.683Z,8.8
2022-11-03T05:39:20.135Z,8.8
2022-11-03T05:40:09.162Z,8.8
2022-11-03T05:41:00.573Z,8.7
2022-11-03T05:42:02.198Z,8.7
2022-11-03T05:43:01.105Z,8.7
2022-11-03T05:44:09.112Z,8.7
2022-11-03T05:45:03.480Z,8.7
2022-11-03T05:46:02.235Z,9.1
2022-11-03T05:47:04.568Z,9.1
2022-11-03T05:48:05.016Z,9.1
2022-11-03T05:49:02.344Z,9.1
2022-11-03T05:50:10.415Z,9.1
2022-11-03T05:51:09.593Z,8.9
2022-11-03T05:52:00.226Z,8.9
2022-11-03T05:53:18.848Z,8.9
2022-11-03T05:54:03.656Z,8.9
2022-11-03T05:55:01.163Z,8.9
2022-11-03T05:56:04.466Z,9.0
2022-11-03T05:57:00.284Z,9.0
2022-11-03T05:58:11.264Z,9.0
2022-11-03T05:59:00.794Z,9.0
2022-11-03T06:00:00.314Z,9.0
2022-11-03T06:01:03.998Z,9.6
2022-11-03T06:02:00.710Z,9.6
2022-11-03T06:03:00.379Z,9.6
2022-11-03T06:04:11.405Z,9.6
2022-11-03T06:05:01.027Z,9.6
2022-11-03T06:06:01.293Z,8.7
2022-11-03T06:07:05.069Z,8.7
2022-11-03T06:08:09.779Z,8.7
2022-11-03T06:09:08.350Z,8.7
2022-11-03T06:10:00.277Z,8.7
2022-11-03T06:11:02.617Z,9.1
2022-11-03T06:12:05.191Z,9.1
2022-11-03T06:13:04.619Z,9.1
2022-11-03T06:14:00.379Z,9.1
2022-11-03T06:15:00.333Z,9.1
2022-11-03T06:16:04.557Z,8.6
2022-11-03T06:17:03.589Z,8.6
2022-11-03T06:18:11.731Z,8.6
2022-11-03T06:19:10.272Z,8.6
2022-11-03T06:20:00.373Z,8.6
2022-11-03T06:21:06.187Z,9.1
2022-11-03T06:22:10.164Z,9.1
2022-11-03T06:23:00.431Z,9.1
2022-11-03T06:24:00.273Z,9.1
2022-11-03T06:25:12.365Z,9.1
2022-11-03T06:26:01.457Z,9.4
2022-11-03T06:27:00.250Z,9.4
2022-11-03T06:28:03.527Z,9.4
2022-11-03T06:29:00.264Z,9.4
2022-11-03T06:30:09.055Z,9.4
2022-11-03T06:31:00.309Z,8.9
2022-11-03T06:32:00.845Z,8.9
2022-11-03T06:33:03.682Z,8.9
2022-11-03T06:34:00.985Z,8.9
2022-11-03T06:35:00.244Z,8.9
2022-11-03T06:36:10.201Z,9.2
2022-11-03T06:37:12.543Z,9.2
2022-11-03T06:38:00.578Z,9.2
2022-11-03T06:39:08.526Z,9.2
2022-11-03T06:40:10.179Z,9.2
2022-11-03T06:41:00.302Z,9.1
2022-11-03T06:42:09.877Z,9.1
2022-11-03T06:43:09.338Z,9.1
2022-11-03T06:44:11.482Z,9.1
2022-11-03T06:45:10.809Z,9.1
2022-11-03T06:46:04.877Z,9.2
2022-11-03T06:47:12.650Z,9.2
2022-11-03T06:48:11.567Z,9.2
2022-11-03T06:49:00.911Z,9.2
2022-11-03T06:50:00.705Z,9.2
2022-11-03T06:51:00.696Z,8.8
2022-11-03T06:52:19.378Z,8.8
2022-11-03T06:53:02.952Z,8.8
2022-11-03T06:54:00.365Z,8.8
2022-11-03T06:55:13.778Z,8.8
2022-11-03T06:56:00.307Z,8.9
2022-11-03T06:57:00.634Z,8.9
2022-11-03T06:58:14.129Z,8.9
2022-11-03T06:59:00.284Z,8.9
2022-11-03T07:00:28.091Z,8.9
2022-11-03T07:01:08.968Z,9.4
2022-11-03T07:02:00.382Z,9.4
2022-11-03T07:03:05.434Z,9.4
2022-11-03T07:04:05.356Z,9.4
2022-11-03T07:05:00.238Z,9.4
2022-11-03T07:06:11.669Z,10.0
2022-11-03T07:07:01.869Z,10.0
2022-11-03T07:08:10.128Z,10.0
2022-11-03T07:09:03.187Z,10.0
2022-11-03T07:10:00.305Z,10.0
2022-11-03T07:11:09.901Z,10.2
2022-11-03T07:12:00.253Z,10.2
2022-11-03T07:13:07.241Z,10.2
2022-11-03T07:14:19.428Z,10.2
2022-11-03T07:15:00.334Z,10.2
2022-11-03T07:16:00.639Z,10.4
2022-11-03T07:17:03.749Z,10.4
2022-11-03T07:18:01.594Z,10.4
2022-11-03T07:19:02.890Z,10.4
2022-11-03T07:20:00.314Z,10.4
2022-11-03T07:21:13.430Z,9.2
2022-11-03T07:22:03.602Z,9.2
2022-11-03T07:23:00.751Z,9.2
2022-11-03T07:24:03.903Z,9.2
2022-11-03T07:25:02.776Z,9.2
2022-11-03T07:26:00.952Z,8.9
2022-11-03T07:27:06.823Z,8.9
2022-11-03T07:28:01.558Z,8.9
2022-11-03T07:29:00.778Z,8.9
2022-11-03T07:30:12.985Z,8.9
2022-11-03T07:31:15.078Z,9.3
2022-11-03T07:32:00.433Z,9.3
2022-11-03T07:33:08.165Z,9.3
2022-11-03T07:34:00.311Z,9.3
2022-11-03T07:35:17.715Z,9.3
2022-11-03T07:36:14.888Z,8.1
2022-11-03T07:37:00.459Z,8.1
2022-11-03T07:38:10.377Z,8.1
2022-11-03T07:39:00.751Z,8.1
2022-11-03T07:40:00.382Z,8.1
2022-11-03T07:41:00.344Z,8.8
2022-11-03T07:42:08.620Z,8.8
2022-11-03T07:43:11.550Z,8.8
2022-11-03T07:44:01.409Z,8.8
2022-11-03T07:45:00.233Z,8.8
2022-11-03T07:46:02.283Z,8.5
2022-11-03T07:47:00.237Z,8.5
2022-11-03T07:48:11.061Z,8.5
2022-11-03T07:49:01.535Z,8.5
2022-11-03T07:50:00.855Z,8.5
2022-11-03T07:51:11.336Z,8.4
2022-11-03T07:52:00.235Z,8.4
2022-11-03T07:53:00.427Z,8.4
2022-11-03T07:54:02.680Z,8.4
2022-11-03T07:55:00.325Z,8.4
2022-11-03T07:56:01.109Z,8.6
2022-11-03T07:57:05.539Z,8.6
2022-11-03T07:58:00.240Z,8.6
2022-11-03T07:59:09.872Z,8.6
2022-11-03T08:00:07.232Z,8.6
2022-11-03T08:01:01.088Z,8.3
2022-11-03T08:02:01.222Z,8.3
2022-11-03T08:03:01.036Z,8.3
2022-11-03T08:04:04.576Z,8.3
2022-11-03T08:05:00.898Z,8.3
2022-11-03T08:06:02.701Z,8.6
2022-11-03T08:07:00.279Z,8.6
2022-11-03T08:08:00.230Z,8.6
2022-11-03T08:09:00.403Z,8.6
2022-11-03T08:10:00.336Z,8.6
2022-11-03T08:11:00.268Z,8.7
2022-11-03T08:12:00.245Z,8.7
2022-11-03T08:13:00.240Z,8.7
2022-11-03T08:14:00.218Z,8.7
2022-11-03T08:15:00.263Z,8.7
2022-11-03T08:16:00.280Z,9.4
2022-11-03T08:17:00.252Z,9.4
2022-11-03T08:18:00.232Z,9.4
2022-11-03T08:19:00.247Z,9.4
2022-11-03T08:20:00.230Z,9.4
2022-11-03T08:21:00.235Z,9.0
2022-11-03T08:22:00.238Z,9.0
2022-11-03T08:23:20.080Z,9.0
2022-11-03T08:24:00.499Z,9.0
2022-11-03T08:25:00.280Z,9.0
2022-11-03T08:26:00.234Z,8.9
2022-11-03T08:27:00.245Z,8.9
2022-11-03T08:28:00.268Z,8.9
2022-11-03T08:29:00.315Z,8.9
2022-11-03T08:30:00.239Z,8.9
2022-11-03T08:31:02.185Z,8.4
2022-11-03T08:32:00.229Z,8.4
2022-11-03T08:33:00.549Z,8.4
2022-11-03T08:34:00.226Z,8.4
2022-11-03T08:35:00.221Z,8.4
2022-11-03T08:36:02.021Z,7.5
2022-11-03T08:37:00.472Z,7.5
2022-11-03T08:38:00.429Z,7.5
2022-11-03T08:39:00.345Z,7.5
2022-11-03T08:40:00.218Z,7.5
2022-11-03T08:41:00.303Z,7.6
2022-11-03T08:42:00.262Z,7.6
2022-11-03T08:43:00.268Z,7.6
2022-11-03T08:44:00.280Z,7.6
2022-11-03T08:45:00.280Z,7.6
2022-11-03T08:46:08.146Z,8.1
2022-11-03T08:47:00.576Z,8.1
2022-11-03T08:48:00.303Z,8.1
2022-11-03T08:49:00.321Z,8.1
2022-11-03T08:50:00.340Z,8.1
2022-11-03T08:51:00.312Z,7.7
2022-11-03T08:52:00.252Z,7.7
2022-11-03T08:53:00.238Z,7.7
2022-11-03T08:54:00.225Z,7.7
2022-11-03T08:55:00.465Z,7.7
2022-11-03T08:56:00.311Z,7.6
2022-11-03T08:57:00.224Z,7.6
2022-11-03T08:58:00.291Z,7.6
2022-11-03T08:59:00.272Z,7.6
2022-11-03T09:00:00.558Z,7.6
2022-11-03T09:01:00.285Z,7.8
2022-11-03T09:02:00.288Z,7.8
2022-11-03T09:03:00.270Z,7.8
2022-11-03T09:04:00.314Z,7.8
2022-11-03T09:05:00.320Z,7.8
2022-11-03T09:06:00.248Z,8.0
2022-11-03T09:07:00.265Z,8.0
2022-11-03T09:10:28.497Z,8.0
2022-11-03T09:11:00.241Z,8.4
2022-11-03T09:12:00.327Z,8.4
2022-11-03T09:13:00.384Z,8.4
2022-11-03T09:14:00.252Z,8.4
2022-11-03T09:15:00.301Z,8.4
2022-11-03T09:16:00.217Z,8.4
2022-11-03T09:17:00.351Z,8.4
2022-11-03T09:18:00.656Z,8.4
2022-11-03T09:19:00.230Z,8.4
2022-11-03T09:20:00.422Z,8.4
2022-11-03T09:21:00.214Z,8.4
2022-11-03T09:22:00.267Z,8.4
2022-11-03T09:23:00.221Z,8.4
2022-11-03T09:24:00.279Z,8.4
2022-11-03T09:25:00.264Z,8.4
2022-11-03T09:26:00.231Z,8.1
2022-11-03T09:27:02.307Z,8.1
2022-11-03T09:28:00.298Z,8.1
2022-11-03T09:29:00.218Z,8.1
2022-11-03T09:30:12.686Z,8.1
2022-11-03T09:31:00.226Z,7.6
2022-11-03T09:32:00.493Z,7.6
2022-11-03T09:33:00.362Z,7.6
2022-11-03T09:34:00.217Z,7.6
2022-11-03T09:35:00.367Z,7.6
2022-11-03T09:36:00.309Z,7.3
2022-11-03T09:37:00.272Z,7.3
2022-11-03T09:38:00.241Z,7.3
2022-11-03T09:39:00.224Z,7.3
2022-11-03T09:40:00.459Z,7.3
2022-11-03T09:41:02.175Z,6.9
2022-11-03T09:42:00.364Z,6.9
2022-11-03T09:43:00.415Z,6.9
2022-11-03T09:44:00.653Z,6.9
2022-11-03T09:45:01.123Z,6.9
2022-11-03T09:46:00.251Z,6.6
2022-11-03T09:47:01.184Z,6.6
2022-11-03T09:48:00.758Z,6.6
2022-11-03T09:49:01.514Z,6.6
2022-11-03T09:50:01.065Z,6.6
2022-11-03T09:51:00.265Z,6.1
2022-11-03T09:52:01.967Z,6.1
2022-11-03T09:53:00.248Z,6.1
2022-11-03T09:54:03.382Z,6.1
2022-11-03T09:55:00.546Z,6.1
2022-11-03T09:56:00.275Z,6.2
2022-11-03T09:57:10.541Z,6.2
2022-11-03T09:58:08.418Z,6.2
2022-11-03T09:59:00.246Z,6.2
2022-11-03T10:00:00.320Z,6.2
2022-11-03T10:01:00.409Z,6.6
2022-11-03T10:02:00.448Z,6.6
2022-11-03T10:03:01.291Z,6.6
2022-11-03T10:04:00.637Z,6.6
2022-11-03T10:05:03.370Z,6.6
2022-11-03T10:06:00.260Z,6.6
2022-11-03T10:07:00.243Z,6.6
2022-11-03T10:08:04.161Z,6.6
2022-11-03T10:09:00.344Z,6.6
2022-11-03T10:10:00.358Z,6.6
2022-11-03T10:11:01.742Z,6.8
2022-11-03T10:12:00.269Z,6.8
2022-11-03T10:13:00.865Z,6.8
2022-11-03T10:14:00.671Z,6.8
2022-11-03T10:15:00.377Z,6.8
2022-11-03T10:16:03.987Z,6.4
2022-11-03T10:17:00.481Z,6.4
2022-11-03T10:18:00.764Z,6.4
2022-11-03T10:19:00.316Z,6.4
2022-11-03T10:20:01.480Z,6.4
2022-11-03T10:21:04.562Z,5.8
2022-11-03T10:22:00.325Z,5.8
2022-11-03T10:23:00.212Z,5.8
2022-11-03T10:24:00.280Z,5.8
2022-11-03T10:25:20.156Z,5.8
2022-11-03T10:26:09.972Z,5.2
2022-11-03T10:27:00.309Z,5.2
2022-11-03T10:28:14.532Z,5.2
2022-11-03T10:29:02.422Z,5.2
2022-11-03T10:30:04.872Z,5.2
2022-11-03T10:31:12.646Z,5.7
2022-11-03T10:32:00.412Z,5.7
2022-11-03T10:33:00.454Z,5.7
2022-11-03T10:34:00.566Z,5.7
2022-11-03T10:35:01.333Z,5.7
2022-11-03T10:36:02.916Z,5.4
2022-11-03T10:37:10.190Z,5.4
2022-11-03T10:38:20.155Z,5.4
2022-11-03T10:39:20.127Z,5.4
2022-11-03T10:40:00.267Z,5.4
2022-11-03T10:41:09.598Z,5.3
2022-11-03T10:42:00.225Z,5.3
2022-11-03T10:43:00.246Z,5.3
2022-11-03T10:44:04.789Z,5.3
2022-11-03T10:45:10.209Z,5.3
2022-11-03T10:46:29.661Z,5.6
2022-11-03T10:47:03.810Z,5.6
2022-11-03T10:48:04.224Z,5.6
2022-11-03T10:49:03.229Z,5.6
2022-11-03T10:50:20.134Z,5.6
2022-11-03T10:51:00.212Z,5.2
2022-11-03T10:52:17.388Z,5.2
2022-11-03T10:53:00.268Z,5.2
2022-11-03T10:54:01.575Z,5.2
2022-11-03T10:55:00.301Z,5.2
2022-11-03T10:56:00.413Z,11.3
2022-11-03T10:57:00.446Z,11.3
2022-11-03T10:58:00.280Z,11.3
2022-11-03T10:59:01.037Z,11.3
2022-11-03T11:00:00.564Z,11.3
2022-11-03T11:01:00.411Z,5.4
2022-11-03T11:02:00.847Z,5.4
2022-11-03T11:03:00.424Z,5.4
2022-11-03T11:04:00.351Z,5.4
2022-11-03T11:05:02.153Z,5.4
2022-11-03T11:06:00.248Z,5.0
2022-11-03T11:07:00.394Z,5.0
2022-11-03T11:08:00.392Z,5.0
2022-11-03T11:09:03.631Z,5.0
2022-11-03T11:10:11.393Z,5.0
2022-11-03T11:11:05.251Z,4.9
2022-11-03T11:12:02.511Z,4.9
2022-11-03T11:13:01.122Z,4.9
2022-11-03T11:14:20.127Z,4.9
2022-11-03T11:15:02.271Z,4.9
2022-11-03T11:16:01.294Z,5.6
2022-11-03T11:17:01.418Z,5.6
2022-11-03T11:18:00.269Z,5.6
2022-11-03T11:19:00.617Z,5.6
2022-11-03T11:20:20.134Z,5.6
2022-11-03T11:21:11.007Z,5.4
2022-11-03T11:22:11.196Z,5.4
2022-11-03T11:23:20.129Z,5.4
2022-11-03T11:24:00.284Z,5.4
2022-11-03T11:25:01.169Z,5.4
2022-11-03T11:26:20.148Z,5.5
2022-11-03T11:27:00.257Z,5.5
2022-11-03T11:28:10.696Z,5.5
2022-11-03T11:29:07.551Z,5.5
2022-11-03T11:30:03.014Z,5.5
2022-11-03T11:31:20.126Z,5.8
2022-11-03T11:32:20.151Z,5.8
2022-11-03T11:33:12.736Z,5.8
2022-11-03T11:34:10.205Z,5.8
2022-11-03T11:35:00.302Z,5.8
2022-11-03T11:36:00.303Z,5.1
2022-11-03T11:37:00.304Z,5.1
2022-11-03T11:38:20.163Z,5.1
2022-11-03T11:39:00.785Z,5.1
2022-11-03T11:40:00.400Z,5.1
2022-11-03T11:41:00.615Z,5.2
2022-11-03T11:42:14.221Z,5.2
2022-11-03T11:43:00.310Z,5.2
2022-11-03T11:44:20.152Z,5.2
2022-11-03T11:45:00.782Z,5.2
2022-11-03T11:46:20.134Z,5.1
2022-11-03T11:47:00.281Z,5.1
2022-11-03T11:48:18.801Z,5.1
2022-11-03T11:49:11.196Z,5.1
2022-11-03T11:50:07.701Z,5.1
2022-11-03T11:51:01.745Z,4.8
2022-11-03T11:52:00.243Z,4.8
2022-11-03T11:53:11.418Z,4.8
2022-11-03T11:54:17.652Z,4.8
2022-11-03T11:55:00.457Z,4.8
2022-11-03T11:56:01.541Z,4.9
2022-11-03T11:57:00.234Z,4.9
2022-11-03T11:58:02.712Z,4.9
2022-11-03T11:59:00.437Z,4.9
2022-11-03T12:00:00.279Z,4.9
2022-11-03T12:01:03.384Z,4.6
2022-11-03T12:02:01.864Z,4.6
2022-11-03T12:03:02.511Z,4.6
2022-11-03T12:05:00.230Z,4.6
2022-11-03T12:06:00.741Z,4.5
2022-11-03T12:07:00.275Z,4.5
2022-11-03T12:08:00.880Z,4.5
2022-11-03T12:09:13.996Z,4.5
2022-11-03T12:10:09.047Z,4.5
2022-11-03T12:11:02.870Z,4.3
2022-11-03T12:12:06.837Z,4.3
2022-11-03T12:13:00.288Z,4.3
2022-11-03T12:14:00.261Z,4.3
2022-11-03T12:15:00.297Z,4.3
2022-11-03T12:16:00.397Z,4.4
2022-11-03T12:17:13.435Z,4.4
2022-11-03T12:18:20.135Z,4.4
2022-11-03T12:19:20.127Z,4.4
2022-11-03T12:20:20.130Z,4.7
2022-11-03T12:21:03.456Z,4.7
2022-11-03T12:22:01.360Z,4.7
2022-11-03T12:23:00.268Z,4.7
2022-11-03T12:24:00.212Z,4.7
2022-11-03T12:25:02.155Z,4.7
2022-11-03T12:26:00.348Z,4.9
2022-11-03T12:27:01.642Z,4.9
2022-11-03T12:28:00.758Z,4.9
2022-11-03T12:29:00.248Z,4.9
2022-11-03T12:30:04.401Z,4.9
2022-11-03T12:31:01.207Z,4.6
2022-11-03T12:32:00.226Z,4.6
2022-11-03T12:33:00.221Z,4.6
2022-11-03T12:34:00.239Z,4.6
2022-11-03T12:35:01.580Z,4.6
2022-11-03T12:36:00.351Z,5.2
2022-11-03T12:37:00.233Z,5.2
2022-11-03T12:38:00.258Z,5.2
2022-11-03T12:39:00.283Z,5.2
2022-11-03T12:40:00.422Z,5.2
2022-11-03T12:41:00.347Z,5.0
2022-11-03T12:42:00.452Z,5.0
2022-11-03T12:43:00.209Z,5.0
2022-11-03T12:44:00.395Z,5.0
2022-11-03T12:45:00.250Z,5.0
2022-11-03T12:46:00.344Z,4.7
2022-11-03T12:47:00.384Z,4.7
2022-11-03T12:48:00.298Z,4.7
2022-11-03T12:49:01.556Z,4.7
2022-11-03T12:50:00.240Z,4.7
2022-11-03T12:51:00.222Z,5.5
2022-11-03T12:52:05.292Z,5.5
2022-11-03T12:53:00.227Z,5.5
2022-11-03T12:54:00.279Z,5.5
2022-11-03T12:55:00.216Z,5.5
2022-11-03T12:56:00.223Z,5.3
2022-11-03T12:57:00.327Z,5.3
2022-11-03T12:58:00.267Z,5.3
2022-11-03T12:59:00.282Z,5.3
2022-11-03T13:00:00.391Z,5.3
2022-11-03T13:01:02.052Z,5.1
2022-11-03T13:02:00.393Z,5.1
2022-11-03T13:03:00.208Z,5.1
2022-11-03T13:04:00.252Z,5.1
2022-11-03T13:05:00.247Z,5.1
2022-11-03T13:06:01.746Z,6.0
2022-11-03T13:07:00.842Z,6.0
2022-11-03T13:08:00.204Z,6.0
2022-11-03T13:09:00.259Z,6.0
2022-11-03T13:10:00.303Z,6.0
2022-11-03T13:11:00.298Z,5.1
2022-11-03T13:12:00.234Z,5.1
2022-11-03T13:13:00.239Z,5.1
2022-11-03T13:14:00.293Z,5.1
2022-11-03T13:15:02.800Z,5.1
2022-11-03T13:16:00.206Z,5.0
2022-11-03T13:17:00.282Z,5.0
2022-11-03T13:18:13.350Z,5.0
2022-11-03T13:19:00.253Z,5.0
2022-11-03T13:20:00.376Z,5.0
2022-11-03T13:21:00.248Z,5.3
2022-11-03T13:22:00.218Z,5.3
2022-11-03T13:23:01.246Z,5.3
2022-11-03T13:24:00.219Z,5.3
2022-11-03T13:25:00.220Z,5.3
2022-11-03T13:26:00.445Z,5.3
2022-11-03T13:27:00.362Z,5.3
2022-11-03T13:28:00.220Z,5.3
2022-11-03T13:29:00.300Z,5.3
2022-11-03T13:30:00.265Z,5.3
2022-11-03T13:31:00.238Z,4.8
2022-11-03T13:32:00.295Z,4.8
2022-11-03T13:33:00.220Z,4.8
2022-11-03T13:34:00.221Z,4.8
2022-11-03T13:35:00.297Z,4.8
2022-11-03T13:36:00.312Z,4.9
2022-11-03T13:37:00.385Z,4.9
2022-11-03T13:38:00.272Z,4.9
2022-11-03T13:39:00.226Z,4.9
2022-11-03T13:40:00.237Z,4.9
2022-11-03T13:41:06.895Z,5.1
2022-11-03T13:42:00.217Z,5.1
2022-11-03T13:43:00.228Z,5.1